Time;durP1;ratioP1;P1;durP2;ratioP2;P2;SDS_P1;SDS_P2;PMS_P1;PMS_P2;Temp;Humidity;BMP_temperature;BMP_pressure;BME280_temperature;BME280_humidity;BME280_pressure;Samples;Min_cycle;Max_cycle;Signal;HPM_P1;HPM_P2
2023/12/16 00:01:47;;;;;;;5.82;1.67;;;;;;;6.91;100.00;103723.88;7395561;19;19914;-80
2023/12/16 00:04:16;;;;;;;6.25;1.30;;;;;;;6.92;100.00;103721.13;7395131;19;19943;-79
2023/12/16 00:06:44;;;;;;;8.48;1.73;;;;;;;6.93;100.00;103738.94;7396410;19;20297;-80
2023/12/16 00:09:13;;;;;;;4.93;1.48;;;;;;;6.94;100.00;103727.28;7394876;19;19942;-80
2023/12/16 00:11:42;;;;;;;6.68;1.33;;;;;;;6.94;100.00;103723.72;7395350;19;19937;-80
2023/12/16 00:14:10;;;;;;;4.70;1.50;;;;;;;6.95;100.00;103722.75;7394442;19;19933;-82
2023/12/16 00:16:39;;;;;;;3.75;1.27;;;;;;;6.94;100.00;103723.72;7394952;19;20345;-82
2023/12/16 00:19:10;;;;;;;5.43;1.10;;;;;;;6.95;100.00;103720.06;7394504;19;19918;-80
2023/12/16 00:21:39;;;;;;;11.65;1.70;;;;;;;6.96;100.00;103725.38;7394214;19;19923;-80
2023/12/16 00:24:09;;;;;;;5.90;1.65;;;;;;;6.96;100.00;103720.00;7396106;19;19911;-80
2023/12/16 00:26:37;;;;;;;8.32;1.48;;;;;;;6.97;100.00;103720.88;7394790;19;20502;-80
2023/12/16 00:29:06;;;;;;;8.98;1.30;;;;;;;6.97;100.00;103716.38;7398022;19;19918;-80
2023/12/16 00:31:35;;;;;;;3.15;1.10;;;;;;;6.95;100.00;103718.25;7395294;19;19914;-80
2023/12/16 00:34:03;;;;;;;5.60;2.00;;;;;;;6.94;100.00;103719.25;7395426;19;19919;-80
2023/12/16 00:36:35;;;;;;;3.72;1.17;;;;;;;6.94;100.00;103721.91;7393203;19;20379;-80
2023/12/16 00:39:23;;;;;;;7.32;1.90;;;;;;;6.93;100.00;103722.88;7392890;19;19982;-79
2023/12/16 00:41:52;;;;;;;5.00;1.40;;;;;;;6.93;100.00;103720.19;7394963;19;19943;-80
2023/12/16 00:44:20;;;;;;;4.15;1.23;;;;;;;6.93;100.00;103727.34;7394501;19;19925;-80
2023/12/16 00:46:49;;;;;;;6.90;1.65;;;;;;;6.92;100.00;103730.97;7394857;19;20067;-79
2023/12/16 00:49:18;;;;;;;3.08;1.33;;;;;;;6.91;100.00;103718.50;7393085;19;19927;-80
2023/12/16 00:51:49;;;;;;;4.85;1.25;;;;;;;6.89;100.00;103720.44;7393595;19;19911;-80
2023/12/16 00:54:18;;;;;;;6.03;1.35;;;;;;;6.86;99.97;103721.44;7392338;19;19918;-80
2023/12/16 00:56:47;;;;;;;9.25;1.58;;;;;;;6.84;99.81;103718.00;7394151;19;19923;-80
2023/12/16 00:59:16;;;;;;;5.93;1.60;;;;;;;6.81;100.00;103713.69;7390726;19;19922;-80
2023/12/16 01:01:44;;;;;;;4.55;1.30;;;;;;;6.79;100.00;103714.69;7394137;19;19914;-79
2023/12/16 01:04:13;;;;;;;6.50;1.00;;;;;;;6.77;100.00;103705.91;7392107;19;19933;-80
2023/12/16 01:06:42;;;;;;;5.25;1.40;;;;;;;6.75;100.00;103705.09;7394743;19;20281;-80
2023/12/16 01:09:13;;;;;;;3.95;1.40;;;;;;;6.73;100.00;103705.16;7397089;19;19926;-79
2023/12/16 01:11:43;;;;;;;5.40;1.65;;;;;;;6.70;100.00;103701.78;7406456;19;19926;-79
2023/12/16 01:14:12;;;;;;;6.97;1.20;;;;;;;6.68;100.00;103695.69;7400094;19;20393;-82
2023/12/16 01:16:40;;;;;;;8.23;2.15;;;;;;;6.65;100.00;103695.81;7399974;19;19921;-82
2023/12/16 01:19:09;;;;;;;7.72;1.40;;;;;;;6.63;99.99;103693.25;7398526;19;19926;-82
2023/12/16 01:21:43;;;;;;;19.33;2.75;;;;;;;6.61;99.78;103695.13;7400012;19;19974;-80
2023/12/16 01:24:14;;;;;;;9.77;1.83;;;;;;;6.62;100.00;103696.00;7398429;19;20357;-80
2023/12/16 01:26:43;;;;;;;4.70;1.42;;;;;;;6.60;100.00;103695.22;7396829;19;20396;-80
2023/12/16 01:29:11;;;;;;;3.22;1.20;;;;;;;6.58;100.00;103705.13;7399065;19;19943;-80
2023/12/16 01:32:00;;;;;;;8.95;1.65;;;;;;;6.56;99.88;103702.53;7393627;19;19929;-79
2023/12/16 01:34:28;;;;;;;3.95;1.00;;;;;;;6.56;99.51;103699.84;7400036;19;20269;-80
2023/12/16 01:36:57;;;;;;;6.07;1.55;;;;;;;6.55;99.55;103705.31;7400182;19;19918;-80
2023/12/16 01:39:48;;;;;;;7.55;2.05;;;;;;;6.54;99.19;103698.22;7396240;19;20379;-80
2023/12/16 01:42:17;;;;;;;6.75;1.45;;;;;;;6.54;99.19;103706.25;7398730;19;19935;-80
2023/12/16 01:44:46;;;;;;;6.18;1.20;;;;;;;6.53;98.72;103708.06;7397612;19;19921;-80
2023/12/16 01:47:15;;;;;;;8.30;1.40;;;;;;;6.52;98.87;103706.31;7398954;19;19914;-80
2023/12/16 01:49:45;;;;;;;4.82;1.20;;;;;;;6.51;98.20;103701.94;7398126;19;19925;-80
2023/12/16 01:52:14;;;;;;;5.15;1.15;;;;;;;6.51;98.29;103709.09;7397896;19;19918;-80
2023/12/16 01:54:42;;;;;;;4.13;0.93;;;;;;;6.51;97.76;103714.47;7397477;19;19922;-80
2023/12/16 01:57:14;;;;;;;4.70;0.90;;;;;;;6.50;97.86;103718.06;7398190;19;19942;-80
2023/12/16 01:59:43;;;;;;;6.55;1.17;;;;;;;6.50;98.02;103715.41;7393266;19;19929;-80
2023/12/16 02:02:14;;;;;;;3.55;1.25;;;;;;;6.49;97.48;103716.34;7398591;19;19922;-80
2023/12/16 02:04:43;;;;;;;6.55;1.02;;;;;;;6.48;97.68;103703.88;7396367;19;19927;-80
2023/12/16 02:07:12;;;;;;;4.60;1.15;;;;;;;6.47;97.38;103703.03;7396050;19;20468;-80
2023/12/16 02:09:41;;;;;;;3.80;1.20;;;;;;;6.46;97.07;103695.94;7398135;19;19939;-80
2023/12/16 02:12:09;;;;;;;6.15;1.38;;;;;;;6.45;97.26;103699.56;7396795;19;20296;-80
2023/12/16 02:15:01;;;;;;;5.93;1.20;;;;;;;6.44;97.01;103691.59;7394691;19;19922;-80
2023/12/16 02:17:30;;;;;;;7.18;1.02;;;;;;;6.44;96.99;103691.59;7396668;19;20385;-80
2023/12/16 02:20:18;;;;;;;10.30;1.90;;;;;;;6.39;97.53;103695.41;7394270;19;19952;-80
2023/12/16 02:22:49;;;;;;;6.72;1.50;;;;;;;6.39;97.30;103702.56;7398126;19;19946;-79
2023/12/16 02:25:20;;;;;;;7.57;1.25;;;;;;;6.38;97.75;103708.88;7395876;19;19927;-79
2023/12/16 02:27:49;;;;;;;5.35;1.30;;;;;;;6.35;97.52;103701.00;7397432;19;20015;-79
2023/12/16 02:30:20;;;;;;;7.45;1.52;;;;;;;6.32;97.64;103704.72;7396701;19;20340;-79
2023/12/16 02:32:49;;;;;;;8.23;1.27;;;;;;;6.32;97.53;103695.81;7396746;19;19919;-79
2023/12/16 02:35:37;;;;;;;7.22;1.27;;;;;;;6.28;97.90;103687.06;7395583;19;19914;-79
2023/12/16 02:38:06;;;;;;;3.75;1.17;;;;;;;6.27;98.04;103696.03;7396626;19;19930;-79
2023/12/16 02:40:42;;;;;;;6.63;1.40;;;;;;;6.26;97.94;103702.34;7396845;19;19922;-79
2023/12/16 02:43:30;;;;;;;6.85;1.45;;;;;;;6.24;97.82;103706.06;7396565;19;19918;-79
2023/12/16 02:45:59;;;;;;;4.60;1.52;;;;;;;6.24;97.68;103701.56;7405725;19;19942;-82
2023/12/16 02:48:27;;;;;;;6.22;1.33;;;;;;;6.22;98.01;103692.75;7398111;19;19941;-82
2023/12/16 02:50:56;;;;;;;6.93;1.15;;;;;;;6.21;97.75;103696.34;7394110;19;19922;-82
2023/12/16 02:53:25;;;;;;;5.50;1.60;;;;;;;6.21;97.86;103700.88;7397790;19;19922;-82
2023/12/16 02:56:17;;;;;;;4.38;1.45;;;;;;;6.17;97.66;103700.13;7395095;19;20368;-79
2023/12/16 02:58:45;;;;;;;4.60;1.60;;;;;;;6.17;97.80;103699.28;7396596;19;19931;-79
2023/12/16 03:01:14;;;;;;;7.00;1.27;;;;;;;6.15;98.09;103702.03;7397539;19;19919;-79
2023/12/16 03:03:43;;;;;;;4.38;1.30;;;;;;;6.12;98.29;103693.31;7396619;19;19915;-79
2023/12/16 03:06:11;;;;;;;7.88;1.25;;;;;;;6.10;97.96;103701.41;7397449;19;19923;-79
2023/12/16 03:08:40;;;;;;;6.68;1.33;;;;;;;6.07;98.44;103701.56;7394811;19;20331;-80
2023/12/16 03:11:31;;;;;;;6.63;1.42;;;;;;;6.05;98.52;103700.78;7393740;19;19927;-82
2023/12/16 03:14:00;;;;;;;8.63;1.20;;;;;;;6.04;98.17;103698.19;7395118;19;19947;-82
2023/12/16 03:16:29;;;;;;;4.53;1.15;;;;;;;6.01;98.37;103699.19;7396932;19;19922;-82
2023/12/16 03:18:57;;;;;;;11.43;2.20;;;;;;;6.00;98.72;103696.63;7395237;19;19915;-82
2023/12/16 03:21:46;;;;;;;6.38;1.67;;;;;;;5.94;98.61;103692.44;7395966;19;19918;-81
2023/12/16 03:24:15;;;;;;;13.27;1.63;;;;;;;5.88;99.02;103692.75;7398686;19;19958;-81
2023/12/16 03:26:46;;;;;;;6.45;1.52;;;;;;;5.82;99.34;103699.25;7397979;19;20381;-81
2023/12/16 03:29:15;;;;;;;6.97;1.63;;;;;;;5.75;99.70;103696.94;7398024;19;19915;-82
2023/12/16 03:31:43;;;;;;;4.05;1.58;;;;;;;5.67;99.87;103688.44;7394926;19;19919;-82
2023/12/16 03:34:09;;;;;;;7.30;1.33;;;;;;;5.59;100.00;103695.97;7396080;19;20361;-82
2023/12/16 03:36:38;;;;;;;8.98;1.50;;;;;;;5.53;100.00;103694.47;7395301;19;19939;-82
2023/12/16 03:39:07;;;;;;;8.05;1.80;;;;;;;5.47;100.00;103684.97;7396988;19;19923;-82
2023/12/16 03:41:36;;;;;;;5.20;1.52;;;;;;;5.42;100.00;103684.31;7395493;19;20006;-82
2023/12/16 03:44:07;;;;;;;5.47;2.10;;;;;;;5.40;100.00;103685.31;7397231;19;19935;-82
2023/12/16 03:46:36;;;;;;;9.00;1.77;;;;;;;5.37;100.00;103685.47;7396414;19;19914;-79
2023/12/16 03:49:24;;;;;;;8.63;2.10;;;;;;;5.35;100.00;103688.19;7393833;19;19911;-80
2023/12/16 03:51:56;;;;;;;6.90;1.88;;;;;;;5.35;100.00;103688.19;7397043;19;19919;-80
2023/12/16 03:54:24;;;;;;;8.02;1.98;;;;;;;5.34;100.00;103670.47;7398888;19;19915;-80
2023/12/16 03:56:53;;;;;;;7.97;1.88;;;;;;;5.33;100.00;103670.53;7396294;19;20611;-80
2023/12/16 03:59:44;;;;;;;8.73;2.00;;;;;;;5.32;100.00;103675.00;7392651;19;19925;-80
2023/12/16 04:02:13;;;;;;;9.32;1.70;;;;;;;5.31;100.00;103670.59;7394889;19;19922;-79
2023/12/16 04:04:44;;;;;;;7.07;2.20;;;;;;;5.31;100.00;103681.28;7395409;19;19922;-79
2023/12/16 04:07:12;;;;;;;7.22;1.75;;;;;;;5.31;100.00;103681.28;7394661;19;19943;-79
2023/12/16 04:09:42;;;;;;;5.20;1.40;;;;;;;5.32;100.00;103682.16;7395941;19;19938;-80
2023/12/16 04:12:12;;;;;;;7.38;1.70;;;;;;;5.31;100.00;103675.06;7394457;19;19970;-79
2023/12/16 04:14:44;;;;;;;9.00;1.80;;;;;;;5.30;100.00;103687.59;7394080;19;19974;-79
2023/12/16 04:17:12;;;;;;;6.63;1.52;;;;;;;5.30;100.00;103684.03;7394107;19;19919;-79
2023/12/16 04:19:41;;;;;;;8.25;2.08;;;;;;;5.28;100.00;103678.75;7395152;19;19931;-79
2023/12/16 04:22:09;;;;;;;5.43;1.92;;;;;;;5.25;100.00;103681.59;7394476;19;19942;-79
2023/12/16 04:24:38;;;;;;;8.50;1.55;;;;;;;5.23;100.00;103682.59;7394185;19;20264;-82
2023/12/16 04:27:07;;;;;;;9.73;2.60;;;;;;;5.21;100.00;103674.66;7393746;19;19938;-82
2023/12/16 04:29:36;;;;;;;9.30;1.73;;;;;;;5.18;100.00;103669.44;7395561;19;19930;-82
2023/12/16 04:32:08;;;;;;;8.52;2.60;;;;;;;5.15;100.00;103679.41;7394828;19;19942;-82
2023/12/16 04:34:36;;;;;;;6.45;1.90;;;;;;;5.13;100.00;103673.28;7394624;19;20344;-82
2023/12/16 04:37:05;;;;;;;7.18;1.67;;;;;;;5.10;100.00;103676.09;7394560;19;19925;-82
2023/12/16 04:39:33;;;;;;;9.23;1.88;;;;;;;5.10;100.00;103682.31;7393897;19;19942;-82
2023/12/16 04:42:02;;;;;;;11.18;1.85;;;;;;;5.10;100.00;103676.09;7395578;19;20488;-82
2023/12/16 04:44:31;;;;;;;11.77;2.38;;;;;;;5.12;100.00;103667.09;7396539;19;19915;-82
2023/12/16 04:46:59;;;;;;;6.53;1.80;;;;;;;5.12;100.00;103669.75;7401099;19;20672;-81
2023/12/16 04:49:30;;;;;;;7.80;1.83;;;;;;;5.13;100.00;103654.59;7399596;19;19922;-82
2023/12/16 04:51:59;;;;;;;8.40;1.98;;;;;;;5.10;100.00;103663.59;7401302;19;19926;-82
2023/12/16 04:54:29;;;;;;;7.03;1.90;;;;;;;5.12;100.00;103656.41;7399703;19;20299;-82
2023/12/16 04:56:57;;;;;;;7.72;2.03;;;;;;;5.14;100.00;103657.16;7399684;19;19927;-82
2023/12/16 04:59:26;;;;;;;10.27;1.67;;;;;;;5.15;100.00;103655.38;7400322;19;19927;-82
2023/12/16 05:01:55;;;;;;;7.78;1.33;;;;;;;5.17;100.00;103649.03;7405682;19;19922;-82
2023/12/16 05:04:23;;;;;;;5.18;2.13;;;;;;;5.17;100.00;103661.53;7406175;19;19915;-82
2023/12/16 05:06:54;;;;;;;8.43;1.70;;;;;;;5.19;100.00;103659.63;7399564;19;19926;-82
2023/12/16 05:09:23;;;;;;;11.35;2.05;;;;;;;5.21;100.00;103647.06;7400153;19;20333;-82
2023/12/16 05:11:51;;;;;;;6.65;1.42;;;;;;;5.23;100.00;103650.50;7399423;19;20044;-82
2023/12/16 05:14:20;;;;;;;12.52;2.03;;;;;;;5.24;100.00;103653.13;7399363;19;19930;-82
2023/12/16 05:16:49;;;;;;;8.57;2.10;;;;;;;5.28;100.00;103648.50;7398785;19;19914;-82
2023/12/16 05:19:17;;;;;;;7.60;1.65;;;;;;;5.29;100.00;103660.91;7399864;19;20338;-81
2023/12/16 05:21:46;;;;;;;9.30;2.15;;;;;;;5.32;100.00;103666.97;7399398;19;20340;-81
2023/12/16 05:24:37;;;;;;;8.88;2.17;;;;;;;5.32;100.00;103666.97;7397009;19;19953;-81
2023/12/16 05:27:07;;;;;;;9.10;1.80;;;;;;;5.33;100.00;103665.16;7397756;19;19943;-81
2023/12/16 05:29:35;;;;;;;7.18;1.80;;;;;;;5.33;100.00;103663.38;7399905;19;19922;-81
2023/12/16 05:32:04;;;;;;;5.07;1.90;;;;;;;5.34;100.00;103665.13;7400202;19;19919;-81
2023/12/16 05:34:32;;;;;;;7.05;1.88;;;;;;;5.37;100.00;103666.75;7402989;19;19946;-81
2023/12/16 05:37:01;;;;;;;7.78;1.92;;;;;;;5.39;100.00;103663.06;7404863;19;20631;-79
2023/12/16 05:39:30;;;;;;;10.63;1.88;;;;;;;5.42;100.00;103656.72;7402321;19;20340;-80
2023/12/16 05:42:01;;;;;;;17.65;2.53;;;;;;;5.47;100.00;103666.25;7398561;19;19921;-79
2023/12/16 05:44:30;;;;;;;6.80;1.52;;;;;;;5.52;100.00;103676.72;7398404;19;20388;-80
2023/12/16 05:46:59;;;;;;;10.98;2.15;;;;;;;5.58;100.00;103689.75;7399682;19;19914;-80
2023/12/16 05:49:27;;;;;;;9.63;3.40;;;;;;;5.61;100.00;103684.25;7398011;19;19926;-80
2023/12/16 05:51:56;;;;;;;7.60;1.90;;;;;;;5.66;100.00;103681.34;7399646;19;19960;-79
2023/12/16 05:54:26;;;;;;;10.85;1.80;;;;;;;5.69;100.00;103692.78;7398113;19;19951;-79
2023/12/16 05:56:55;;;;;;;6.75;1.98;;;;;;;5.76;100.00;103704.03;7397912;19;19930;-79
2023/12/16 05:59:27;;;;;;;14.90;2.05;;;;;;;5.81;100.00;103697.50;7397383;19;19926;-79
2023/12/16 06:01:55;;;;;;;;;;;;;;;5.79;100.00;103703.88;7401872;19;20366;-79
2023/12/16 06:04:24;;;;;;;9.63;2.38;;;;;;;5.86;100.00;103711.56;7398333;19;19978;-80
2023/12/16 06:06:52;;;;;;;11.10;1.70;;;;;;;5.88;100.00;103700.75;7398155;19;20342;-79
2023/12/16 06:09:21;;;;;;;11.85;1.90;;;;;;;5.89;100.00;103700.69;7399575;19;19933;-79
2023/12/16 06:11:50;;;;;;;10.98;2.47;;;;;;;5.91;100.00;103708.66;7405695;19;20468;-81
2023/12/16 06:14:19;;;;;;;9.82;1.83;;;;;;;5.91;100.00;103708.66;7399043;19;19926;-82
2023/12/16 06:16:50;;;;;;;9.20;2.08;;;;;;;5.91;100.00;103714.00;7397303;19;19956;-80
2023/12/16 06:19:19;;;;;;;9.18;1.70;;;;;;;5.92;100.00;103713.03;7398987;19;19922;-80
2023/12/16 06:21:48;;;;;;;7.95;1.80;;;;;;;5.91;100.00;103714.00;7397681;19;19942;-80
2023/12/16 06:24:17;;;;;;;9.80;1.88;;;;;;;5.91;100.00;103712.16;7399402;19;19910;-80
2023/12/16 06:26:47;;;;;;;10.30;2.17;;;;;;;5.93;100.00;103714.78;7397451;19;19914;-79
2023/12/16 06:29:15;;;;;;;17.45;2.20;;;;;;;5.95;100.00;103714.72;7398777;19;19934;-80
2023/12/16 06:31:44;;;;;;;8.13;1.98;;;;;;;5.96;100.00;103705.72;7396875;19;19922;-80
2023/12/16 06:34:16;;;;;;;10.93;2.17;;;;;;;5.97;100.00;103702.09;7398831;19;20051;-79
2023/12/16 06:36:44;;;;;;;;;;;;;;;5.91;100.00;103709.50;7399480;19;20318;-80
2023/12/16 06:39:13;;;;;;;8.05;1.80;;;;;;;5.97;100.00;103708.31;7398140;19;20556;-80
2023/12/16 06:41:42;;;;;;;9.40;2.17;;;;;;;6.00;100.00;103701.97;7397849;19;19930;-80
2023/12/16 06:44:10;;;;;;;11.15;2.28;;;;;;;6.03;100.00;103701.81;7398652;19;19930;-80
2023/12/16 06:46:39;;;;;;;8.23;2.70;;;;;;;6.05;100.00;103707.94;7398102;19;19919;-80
2023/12/16 06:49:07;;;;;;;8.30;2.13;;;;;;;6.09;100.00;103705.03;7395814;19;19974;-80
2023/12/16 06:51:39;;;;;;;13.02;2.67;;;;;;;6.13;100.00;103709.28;7398183;19;19927;-80
2023/12/16 06:54:07;;;;;;;11.90;2.60;;;;;;;6.19;100.00;103698.25;7397106;19;19926;-80
2023/12/16 06:56:36;;;;;;;18.20;3.10;;;;;;;6.24;100.00;103712.28;7398847;19;19930;-80
2023/12/16 06:59:05;;;;;;;11.80;3.40;;;;;;;6.28;100.00;103705.81;7396750;19;20292;-80
2023/12/16 07:01:33;;;;;;;18.90;3.45;;;;;;;6.30;100.00;103703.91;7398185;19;20316;-80
2023/12/16 07:04:02;;;;;;;10.57;2.40;;;;;;;6.31;100.00;103724.38;7396687;19;19984;-80
2023/12/16 07:06:31;;;;;;;21.23;3.47;;;;;;;6.32;100.00;103704.72;7395344;19;19926;-80
2023/12/16 07:09:02;;;;;;;13.35;2.75;;;;;;;6.34;100.00;103718.03;7396347;19;19927;-80
2023/12/16 07:11:54;;;;;;;12.88;3.35;;;;;;;6.35;100.00;103706.34;7394107;19;20261;-79
2023/12/16 07:14:22;;;;;;;12.25;2.70;;;;;;;6.36;100.00;103718.78;7397233;19;19923;-79
2023/12/16 07:16:51;;;;;;;16.55;4.03;;;;;;;6.37;100.00;103712.50;7396605;19;19930;-79
2023/12/16 07:19:19;;;;;;;13.90;2.97;;;;;;;6.38;100.00;103709.72;7401622;19;19923;-81
2023/12/16 07:21:48;;;;;;;14.82;3.40;;;;;;;6.39;100.00;103705.25;7397178;19;19950;-81
2023/12/16 07:24:19;;;;;;;14.32;3.72;;;;;;;6.41;100.00;103706.03;7396857;19;19958;-81
2023/12/16 07:26:48;;;;;;;21.45;3.80;;;;;;;6.41;100.00;103711.41;7396940;19;19953;-80
2023/12/16 07:29:17;;;;;;;15.05;3.60;;;;;;;6.43;100.00;103703.28;7395820;19;19953;-80
2023/12/16 07:31:49;;;;;;;20.05;4.13;;;;;;;6.43;100.00;103708.66;7396397;19;20335;-80
2023/12/16 07:34:17;;;;;;;;;;;;;;;6.36;100.00;103713.44;7399678;19;19986;-79
2023/12/16 07:36:46;;;;;;;13.50;3.30;;;;;;;6.37;100.00;103710.69;7395275;19;19957;-79
2023/12/16 07:39:15;;;;;;;19.02;3.40;;;;;;;6.37;100.00;103715.19;7396335;19;19923;-79
2023/12/16 07:41:46;;;;;;;13.60;3.25;;;;;;;6.37;100.00;103710.69;7396855;19;19943;-81
2023/12/16 07:44:15;;;;;;;21.05;3.63;;;;;;;6.37;100.00;103708.00;7396406;19;19923;-81
2023/12/16 07:46:43;;;;;;;15.77;3.83;;;;;;;6.35;100.00;103703.66;7400597;19;19923;-81
2023/12/16 07:49:12;;;;;;;16.95;4.20;;;;;;;6.33;100.00;103695.75;7400660;19;19922;-81
2023/12/16 07:51:40;;;;;;;17.20;4.18;;;;;;;6.32;100.00;103704.72;7401586;19;19919;-81
2023/12/16 07:54:11;;;;;;;18.80;4.20;;;;;;;6.32;100.00;103694.00;7397071;19;19935;-83
2023/12/16 07:56:40;;;;;;;12.18;3.55;;;;;;;6.33;100.00;103693.06;7396432;19;19925;-81
2023/12/16 07:59:11;;;;;;;23.13;4.22;;;;;;;6.33;100.00;103695.75;7394338;19;19910;-81
2023/12/16 08:01:39;;;;;;;16.48;4.38;;;;;;;6.36;100.00;103711.63;7397222;19;19931;-81
2023/12/16 08:04:11;;;;;;;20.33;3.40;;;;;;;6.38;100.00;103709.72;7394714;19;20318;-81
2023/12/16 08:06:40;;;;;;;12.85;4.53;;;;;;;6.42;100.00;103712.25;7395144;19;19919;-81
2023/12/16 08:09:09;;;;;;;13.32;3.90;;;;;;;6.42;100.00;103715.81;7395072;19;19944;-81
2023/12/16 08:11:37;;;;;;;17.85;3.70;;;;;;;6.46;100.00;103720.06;7396251;19;20333;-80
2023/12/16 08:14:06;;;;;;;20.60;4.82;;;;;;;6.49;100.00;103729.72;7393994;19;19952;-79
2023/12/16 08:16:39;;;;;;;13.88;4.07;;;;;;;6.51;100.00;103731.41;7395572;19;20282;-79
2023/12/16 08:19:07;;;;;;;18.33;4.28;;;;;;;6.54;100.00;103739.25;7397923;19;19922;-80
2023/12/16 08:21:36;;;;;;;16.27;3.72;;;;;;;6.55;100.00;103732.97;7400696;19;19919;-79
2023/12/16 08:24:05;;;;;;;21.83;4.28;;;;;;;6.57;100.00;103739.09;7401877;19;19923;-79
2023/12/16 08:26:33;;;;;;;19.42;5.15;;;;;;;6.57;100.00;103728.38;7399409;19;19929;-80
2023/12/16 08:29:02;;;;;;;26.75;4.30;;;;;;;6.58;100.00;103737.28;7402259;19;20692;-79
2023/12/16 08:31:31;;;;;;;20.00;4.68;;;;;;;6.58;100.00;103748.00;7399540;19;19922;-79
2023/12/16 08:34:02;;;;;;;20.90;4.00;;;;;;;6.58;100.00;103742.63;7401091;19;20356;-80
2023/12/16 08:36:31;;;;;;;20.38;4.13;;;;;;;6.58;100.00;103748.00;7399708;19;19943;-79
2023/12/16 08:38:59;;;;;;;15.80;3.92;;;;;;;6.58;100.00;103759.56;7401072;19;19918;-79
2023/12/16 08:41:28;;;;;;;16.65;4.32;;;;;;;6.59;100.00;103755.09;7401097;19;20365;-79
2023/12/16 08:43:56;;;;;;;22.17;6.63;;;;;;;6.58;100.00;103748.00;7401417;19;19922;-79
2023/12/16 08:46:25;;;;;;;26.23;5.63;;;;;;;6.58;100.00;103748.00;7399996;19;19939;-79
2023/12/16 08:48:55;;;;;;;16.38;3.97;;;;;;;6.56;100.00;103748.06;7399729;19;19943;-79
2023/12/16 08:51:27;;;;;;;18.27;4.38;;;;;;;6.57;100.00;103746.25;7399899;19;19918;-79
2023/12/16 08:53:55;;;;;;;18.10;5.07;;;;;;;6.56;100.00;103745.38;7400748;19;20344;-80
2023/12/16 08:56:24;;;;;;;19.63;4.93;;;;;;;6.56;100.00;103733.84;7399179;19;19922;-79
2023/12/16 08:58:53;;;;;;;21.20;5.00;;;;;;;6.56;100.00;103733.84;7399708;19;20310;-79
2023/12/16 09:01:22;;;;;;;18.38;5.20;;;;;;;6.57;100.00;103746.25;7400857;19;20457;-79
2023/12/16 09:03:50;;;;;;;20.58;4.43;;;;;;;6.58;100.00;103753.34;7399120;19;19934;-79
2023/12/16 09:06:20;;;;;;;18.90;4.85;;;;;;;6.57;100.00;103763.19;7398830;19;19922;-79
2023/12/16 09:08:51;;;;;;;18.40;5.78;;;;;;;6.56;100.00;103757.94;7399152;19;20273;-79
2023/12/16 09:11:20;;;;;;;22.17;5.10;;;;;;;6.56;100.00;103765.97;7400389;19;20258;-79
2023/12/16 09:13:48;;;;;;;23.85;4.97;;;;;;;6.56;100.00;103771.31;7398540;19;19936;-81
2023/12/16 09:16:17;;;;;;;21.92;4.95;;;;;;;6.53;100.00;103768.78;7400135;19;19933;-81
2023/12/16 09:18:46;;;;;;;12.95;5.07;;;;;;;6.54;100.00;103749.09;7399007;19;19922;-80
2023/12/16 09:21:34;;;;;;;18.05;4.78;;;;;;;6.53;100.00;103771.47;7398149;19;19926;-80
2023/12/16 09:24:07;;;;;;;19.58;4.75;;;;;;;6.53;100.00;103768.78;7399715;19;19919;-80
2023/12/16 09:26:35;;;;;;;20.08;4.45;;;;;;;6.53;100.00;103774.16;7399318;19;19922;-80
2023/12/16 09:29:07;;;;;;;21.42;4.70;;;;;;;6.53;100.00;103760.75;7398560;19;20337;-80
2023/12/16 09:31:36;;;;;;;18.67;5.35;;;;;;;6.53;100.00;103758.06;7396070;19;19934;-80
2023/12/16 09:34:04;;;;;;;18.38;4.93;;;;;;;6.53;100.00;103752.72;7399718;19;19918;-80
2023/12/16 09:36:34;;;;;;;20.83;5.18;;;;;;;6.57;100.00;103762.31;7398774;19;19910;-80
2023/12/16 09:39:02;;;;;;;15.98;4.80;;;;;;;6.58;100.00;103759.56;7399530;19;19954;-80
2023/12/16 09:41:38;;;;;;;20.08;5.20;;;;;;;6.59;100.00;103758.63;7398843;19;19942;-80
2023/12/16 09:44:08;;;;;;;24.52;5.53;;;;;;;6.61;100.00;103761.22;7401985;19;20018;-80
2023/12/16 09:46:37;;;;;;;27.33;5.97;;;;;;;6.61;100.00;103770.13;7398888;19;19947;-80
2023/12/16 09:49:06;;;;;;;27.25;5.45;;;;;;;6.63;100.00;103759.34;7398295;19;19926;-79
2023/12/16 09:51:34;;;;;;;19.13;4.82;;;;;;;6.63;100.00;103762.00;7399380;19;19919;-79
2023/12/16 09:54:03;;;;;;;18.10;5.18;;;;;;;6.65;100.00;103754.75;7395724;19;20448;-80
2023/12/16 09:56:35;;;;;;;16.95;4.85;;;;;;;6.64;100.00;103747.69;7397765;19;19918;-79
2023/12/16 09:59:06;;;;;;;25.05;5.55;;;;;;;6.66;100.00;103751.13;7397897;19;19922;-79
2023/12/16 10:01:35;;;;;;;13.85;4.90;;;;;;;6.64;100.00;103751.22;7401958;19;19939;-82
2023/12/16 10:04:04;;;;;;;18.77;5.85;;;;;;;6.66;100.00;103760.03;7399978;19;19979;-80
2023/12/16 10:06:33;;;;;;;20.80;4.82;;;;;;;6.65;100.00;103747.56;7398418;19;19922;-80
2023/12/16 10:09:01;;;;;;;16.75;5.22;;;;;;;6.66;100.00;103748.44;7395944;19;19962;-79
2023/12/16 10:11:30;;;;;;;21.17;5.63;;;;;;;6.68;100.00;103754.59;7397885;19;20355;-80
2023/12/16 10:14:03;;;;;;;23.90;6.10;;;;;;;6.68;100.00;103760.84;7397018;19;19918;-79
2023/12/16 10:16:32;;;;;;;23.45;5.70;;;;;;;6.68;100.00;103750.13;7399041;19;19922;-79
2023/12/16 10:19:00;;;;;;;17.08;4.78;;;;;;;6.70;100.00;103755.38;7398168;19;19919;-80
2023/12/16 10:21:31;;;;;;;21.60;5.70;;;;;;;6.71;100.00;103746.41;7398149;19;20249;-80
2023/12/16 10:24:00;;;;;;;17.33;5.20;;;;;;;6.71;100.00;103736.56;7398584;19;19943;-79
2023/12/16 10:26:31;;;;;;;18.00;5.20;;;;;;;6.73;100.00;103728.44;7398174;19;19922;-80
2023/12/16 10:29:05;;;;;;;21.77;5.47;;;;;;;6.74;100.00;103727.47;7398229;19;20199;-79
2023/12/16 10:31:33;;;;;;;16.63;5.25;;;;;;;6.75;100.00;103726.53;7397322;19;19975;-80
2023/12/16 10:34:02;;;;;;;25.20;5.20;;;;;;;6.76;100.00;103712.19;7399038;19;19946;-79
2023/12/16 10:36:51;;;;;;;22.98;5.30;;;;;;;6.77;100.00;103711.25;7397398;19;19922;-80
2023/12/16 10:39:39;;;;;;;22.65;5.18;;;;;;;6.78;100.00;103705.78;7398457;19;19928;-80
2023/12/16 10:42:08;;;;;;;19.20;5.72;;;;;;;6.80;100.00;103708.41;7398605;19;20037;-79
2023/12/16 10:44:39;;;;;;;23.10;6.25;;;;;;;6.82;100.00;103703.81;7397710;19;19919;-79
2023/12/16 10:47:11;;;;;;;22.05;5.82;;;;;;;6.84;100.00;103709.97;7397269;19;19922;-79
2023/12/16 10:49:45;;;;;;;18.17;5.50;;;;;;;6.84;100.00;103683.16;7398042;19;20297;-79
2023/12/16 10:52:15;;;;;;;20.73;5.78;;;;;;;6.86;100.00;103680.41;7396766;19;20258;-79
2023/12/16 10:54:47;;;;;;;18.02;5.47;;;;;;;6.87;100.00;103684.78;7398002;19;19914;-79
2023/12/16 10:57:47;;;;;;;17.58;6.00;;;;;;;6.87;100.00;103685.66;7395079;19;19994;-79
2023/12/16 11:00:23;;;;;;;25.70;7.28;;;;;;;6.89;100.00;103688.28;7397250;19;20029;-80
2023/12/16 11:03:03;;;;;;;20.98;6.05;;;;;;;6.88;100.00;103684.72;7397335;19;19936;-78
2023/12/16 11:05:34;;;;;;;14.05;5.30;;;;;;;6.88;100.00;103681.19;7396119;19;19919;-80
2023/12/16 11:08:04;;;;;;;18.25;6.30;;;;;;;6.87;100.00;103674.94;7396925;19;19923;-80
2023/12/16 11:10:33;;;;;;;20.42;6.10;;;;;;;6.90;100.00;103679.28;7395984;19;19914;-80
2023/12/16 11:13:03;;;;;;;18.83;7.13;;;;;;;6.90;100.00;103665.91;7396890;19;20363;-80
2023/12/16 11:15:36;;;;;;;19.15;6.60;;;;;;;6.91;100.00;103668.47;7396436;19;19926;-80
2023/12/16 11:18:15;;;;;;;17.05;6.60;;;;;;;6.94;100.00;103654.06;7396258;19;19922;-78
2023/12/16 11:20:47;;;;;;;15.68;6.45;;;;;;;6.94;100.00;103665.63;7395547;19;19962;-80
2023/12/16 11:23:17;;;;;;;17.48;5.20;;;;;;;6.95;100.00;103659.31;7395780;19;19960;-79
2023/12/16 11:25:46;;;;;;;17.08;6.20;;;;;;;6.96;100.00;103655.69;7395933;19;19923;-78
2023/12/16 11:28:16;;;;;;;19.95;5.45;;;;;;;6.97;100.00;103654.75;7395593;19;20575;-80
2023/12/16 11:30:47;;;;;;;12.18;5.28;;;;;;;6.99;100.00;103644.78;7396532;19;19927;-78
2023/12/16 11:33:16;;;;;;;15.82;4.82;;;;;;;7.00;100.00;103651.88;7396065;19;19943;-81
2023/12/16 11:35:53;;;;;;;15.40;4.97;;;;;;;7.02;100.00;103647.31;7395491;19;19969;-78
2023/12/16 11:38:42;;;;;;;19.33;6.18;;;;;;;7.03;100.00;103658.91;7396054;19;19926;-80
2023/12/16 11:41:14;;;;;;;15.10;5.50;;;;;;;7.05;100.00;103670.38;7395427;19;19954;-78